createdAt,value
2018-06-04T00:00:05.389Z,99.90
2018-06-04T00:02:08.592Z,99.90
2018-06-04T00:04:12.809Z,99.90
2018-06-04T00:06:16.009Z,99.90
2018-06-04T00:08:19.152Z,99.90
2018-06-04T00:10:22.293Z,99.90
2018-06-04T00:12:25.448Z,99.90
2018-06-04T00:14:28.616Z,99.90
2018-06-04T00:16:31.767Z,99.90
2018-06-04T00:18:34.917Z,99.90
2018-06-04T00:20:38.061Z,99.90
2018-06-04T00:22:41.288Z,99.90
2018-06-04T00:26:47.360Z,99.90
2018-06-04T00:28:50.776Z,99.90
2018-06-04T00:30:53.917Z,99.90
2018-06-04T00:32:57.089Z,99.90
2018-06-04T00:35:00.231Z,99.90
2018-06-04T00:37:03.379Z,99.90
2018-06-04T00:39:07.162Z,99.90
2018-06-04T00:41:10.296Z,99.90
2018-06-04T00:43:13.424Z,99.90
2018-06-04T00:45:16.557Z,99.90
2018-06-04T00:47:19.921Z,99.90
2018-06-04T00:49:23.062Z,99.90
2018-06-04T00:51:26.217Z,99.90
2018-06-04T00:53:29.353Z,99.90
2018-06-04T00:55:37.508Z,99.90
2018-06-04T00:57:40.645Z,99.90
2018-06-04T00:59:43.787Z,99.90
2018-06-04T01:01:46.927Z,99.90
2018-06-04T01:03:50.089Z,99.90
2018-06-04T01:05:53.236Z,99.90
2018-06-04T01:07:56.384Z,99.90
2018-06-04T01:09:59.605Z,99.90
2018-06-04T01:12:02.745Z,99.90
2018-06-04T01:14:05.879Z,99.90
2018-06-04T01:16:09.004Z,99.90
2018-06-04T01:18:12.143Z,99.90
2018-06-04T01:20:15.316Z,99.90
2018-06-04T01:22:18.470Z,99.90
2018-06-04T01:24:21.604Z,99.90
2018-06-04T01:26:24.748Z,99.90
2018-06-04T01:28:27.896Z,99.90
2018-06-04T01:30:31.082Z,99.90
2018-06-04T01:32:34.228Z,99.90
2018-06-04T01:34:37.420Z,99.90
2018-06-04T01:36:40.567Z,99.90
2018-06-04T01:38:43.742Z,99.90
2018-06-04T01:40:46.892Z,99.90
2018-06-04T01:42:50.069Z,99.90
2018-06-04T01:44:53.218Z,99.90
2018-06-04T01:46:56.406Z,99.90
2018-06-04T01:48:59.572Z,99.90
2018-06-04T01:51:02.733Z,99.90
2018-06-04T01:53:05.885Z,99.90
2018-06-04T01:55:09.020Z,99.90
2018-06-04T01:57:12.180Z,99.90
2018-06-04T01:59:15.347Z,99.90
2018-06-04T02:01:18.509Z,99.90
2018-06-04T02:03:21.668Z,99.90
2018-06-04T02:05:24.811Z,99.90
2018-06-04T02:07:27.974Z,99.90
2018-06-04T02:09:31.127Z,99.90
2018-06-04T02:11:34.277Z,99.90
2018-06-04T02:13:37.504Z,99.90
2018-06-04T02:15:40.662Z,99.90
2018-06-04T02:17:43.828Z,99.90
2018-06-04T02:19:46.992Z,99.90
2018-06-04T02:21:50.217Z,99.90
2018-06-04T02:23:53.368Z,99.90
2018-06-04T02:25:56.515Z,99.90
2018-06-04T02:27:59.661Z,99.90
2018-06-04T02:30:02.808Z,99.90
2018-06-04T02:32:06.011Z,99.90
2018-06-04T02:34:09.151Z,99.90
2018-06-04T02:36:12.305Z,99.90
2018-06-04T02:38:15.469Z,99.90
2018-06-04T02:40:18.608Z,99.90
2018-06-04T02:42:21.749Z,99.90
2018-06-04T02:44:24.891Z,99.90
2018-06-04T02:46:28.052Z,99.90
2018-06-04T02:48:31.195Z,99.90
2018-06-04T02:50:34.341Z,99.90
2018-06-04T02:52:37.540Z,99.90
2018-06-04T02:56:43.654Z,99.90
2018-06-04T02:58:46.808Z,99.90
2018-06-04T03:00:49.961Z,99.90
2018-06-04T03:02:53.164Z,99.90
2018-06-04T03:04:56.309Z,99.90
2018-06-04T03:06:59.458Z,99.90
2018-06-04T03:09:02.669Z,99.90
2018-06-04T03:11:05.821Z,99.90
2018-06-04T03:13:08.975Z,99.90
2018-06-04T03:15:12.128Z,99.90
2018-06-04T03:17:15.295Z,99.90
2018-06-04T03:19:18.442Z,99.90
2018-06-04T03:21:21.605Z,99.90
2018-06-04T03:23:24.742Z,99.90
2018-06-04T03:25:27.893Z,99.90
2018-06-04T03:27:31.048Z,99.90
2018-06-04T03:29:34.219Z,99.90
2018-06-04T03:31:37.384Z,99.90
2018-06-04T03:33:40.536Z,99.90
2018-06-04T03:35:43.710Z,99.90
2018-06-04T03:37:46.858Z,99.90
2018-06-04T03:39:50.007Z,99.90
2018-06-04T03:41:53.139Z,99.90
2018-06-04T03:43:56.277Z,99.90
2018-06-04T03:45:59.420Z,99.90
2018-06-04T03:48:02.567Z,99.90
2018-06-04T03:50:05.701Z,99.90
2018-06-04T03:52:08.911Z,99.90
2018-06-04T03:54:11.977Z,99.90
2018-06-04T03:56:15.195Z,99.90
2018-06-04T03:58:18.337Z,99.90
2018-06-04T04:00:21.497Z,99.90
2018-06-04T04:02:24.647Z,99.90
2018-06-04T04:04:27.804Z,99.90
2018-06-04T04:06:31.022Z,99.90
2018-06-04T04:08:34.160Z,99.90
2018-06-04T04:10:37.477Z,99.90
2018-06-04T04:12:40.608Z,99.90
2018-06-04T04:14:43.765Z,99.90
2018-06-04T04:16:47.188Z,99.90
2018-06-04T04:18:50.324Z,99.90
2018-06-04T04:20:53.490Z,99.90
2018-06-04T04:22:56.645Z,99.90
2018-06-04T04:27:02.704Z,99.90
2018-06-04T04:29:05.936Z,99.90
2018-06-04T04:31:09.084Z,99.90
2018-06-04T04:33:12.220Z,99.90
2018-06-04T04:35:15.359Z,99.90
2018-06-04T04:37:18.490Z,99.90
2018-06-04T04:39:21.721Z,99.90
2018-06-04T04:41:24.868Z,99.90
2018-06-04T04:43:27.987Z,99.90
2018-06-04T04:45:31.131Z,99.90
2018-06-04T04:47:34.264Z,99.90
2018-06-04T04:49:37.423Z,99.90
2018-06-04T04:51:40.580Z,99.90
2018-06-04T04:53:43.774Z,99.90
2018-06-04T04:55:46.909Z,99.90
2018-06-04T04:57:50.041Z,99.90
2018-06-04T04:59:53.260Z,99.90
2018-06-04T05:01:56.400Z,99.90
2018-06-04T05:03:59.548Z,99.90
2018-06-04T05:06:02.692Z,99.90
2018-06-04T05:08:05.840Z,99.90
2018-06-04T05:10:08.986Z,99.90
2018-06-04T05:12:12.126Z,99.90
2018-06-04T05:14:15.252Z,99.90
2018-06-04T05:16:18.388Z,99.90
2018-06-04T05:18:21.560Z,99.90
2018-06-04T05:20:24.729Z,99.90
2018-06-04T05:22:27.959Z,99.90
2018-06-04T05:24:31.102Z,99.90
2018-06-04T05:26:34.246Z,99.90
2018-06-04T05:28:37.361Z,99.90
2018-06-04T05:30:40.496Z,98.20
2018-06-04T05:32:43.643Z,96.20
2018-06-04T05:34:46.780Z,93.90
2018-06-04T05:36:49.939Z,92.10
2018-06-04T05:38:53.144Z,91.30
2018-06-04T05:42:59.208Z,85.20
2018-06-04T05:45:02.350Z,81.80
2018-06-04T05:47:05.606Z,80.80
2018-06-04T05:49:08.745Z,80.30
2018-06-04T05:51:11.904Z,80.20
2018-06-04T05:53:15.060Z,79.20
2018-06-04T05:55:19.798Z,76.50
2018-06-04T05:57:22.948Z,74.90
2018-06-04T05:59:26.103Z,72.80
2018-06-04T06:01:29.240Z,71.70
2018-06-04T06:03:32.383Z,70.20
2018-06-04T06:05:35.537Z,68.50
2018-06-04T06:07:38.754Z,68.00
2018-06-04T06:09:41.912Z,67.10
2018-06-04T06:11:45.093Z,65.10
2018-06-04T06:13:48.255Z,64.70
2018-06-04T06:15:51.401Z,66.10
2018-06-04T06:17:54.546Z,67.10
2018-06-04T06:19:57.699Z,69.50
2018-06-04T06:24:03.806Z,69.30
2018-06-04T06:26:06.961Z,68.90
2018-06-04T06:28:10.189Z,69.60
2018-06-04T06:30:13.422Z,70.00
2018-06-04T06:34:19.545Z,69.00
2018-06-04T06:36:22.860Z,67.70
2018-06-04T06:38:26.029Z,66.30
2018-06-04T06:40:29.171Z,65.90
2018-06-04T06:42:32.321Z,66.20
2018-06-04T06:44:35.552Z,64.30
2018-06-04T06:46:38.736Z,65.10
2018-06-04T06:48:41.939Z,64.50
2018-06-04T06:50:45.204Z,64.80
2018-06-04T06:52:48.357Z,64.60
2018-06-04T06:54:51.514Z,63.20
2018-06-04T06:56:54.822Z,64.80
2018-06-04T06:58:58.061Z,66.00
2018-06-04T07:01:01.293Z,67.50
2018-06-04T07:03:04.469Z,70.60
2018-06-04T07:05:07.622Z,76.20
2018-06-04T07:07:10.785Z,81.10
2018-06-04T07:13:19.848Z,91.30
2018-06-04T07:15:23.028Z,91.20
2018-06-04T07:17:26.488Z,92.50
2018-06-04T07:19:29.670Z,93.50
2018-06-04T07:21:32.893Z,95.60
2018-06-04T07:23:36.103Z,97.10
2018-06-04T07:25:39.591Z,97.70
2018-06-04T07:29:45.785Z,98.90
2018-06-04T07:31:49.064Z,98.90
2018-06-04T07:33:52.233Z,99.10
2018-06-04T07:36:00.936Z,99.10
2018-06-04T07:38:04.113Z,97.90
2018-06-04T07:40:07.384Z,97.40
2018-06-04T07:42:10.554Z,96.90
2018-06-04T07:44:13.732Z,97.10
2018-06-04T07:46:25.653Z,97.10
2018-06-04T07:48:28.840Z,96.50
2018-06-04T07:50:32.042Z,95.80
2018-06-04T07:52:35.303Z,95.80
2018-06-04T07:56:41.380Z,95.80
2018-06-04T07:58:44.536Z,96.10
2018-06-04T08:00:47.742Z,96.50
2018-06-04T08:02:50.845Z,95.80
2018-06-04T08:04:54.004Z,96.10
2018-06-04T08:06:57.255Z,95.90
2018-06-04T08:11:03.325Z,95.60
2018-06-04T08:13:06.532Z,95.90
2018-06-04T08:15:09.704Z,96.00
2018-06-04T08:17:12.861Z,95.90
2018-06-04T08:19:16.018Z,96.00
2018-06-04T08:21:19.193Z,95.40
2018-06-04T08:23:22.372Z,93.30
2018-06-04T08:25:25.514Z,94.50
2018-06-04T08:27:28.655Z,93.60
2018-06-04T08:29:31.824Z,94.90
2018-06-04T08:31:34.996Z,93.90
2018-06-04T08:33:38.151Z,92.50
2018-06-04T08:35:41.293Z,91.70
2018-06-04T08:37:44.465Z,91.90
2018-06-04T08:39:47.739Z,92.40
2018-06-04T08:41:50.893Z,93.50
2018-06-04T08:43:54.039Z,92.20
2018-06-04T08:45:57.198Z,90.90
2018-06-04T08:48:00.693Z,90.90
2018-06-04T08:50:03.860Z,91.40
2018-06-04T08:52:07.030Z,92.70
2018-06-04T08:54:11.085Z,92.40
2018-06-04T08:56:14.270Z,92.60
2018-06-04T08:58:17.389Z,91.90
2018-06-04T09:00:20.545Z,91.40
2018-06-04T09:02:23.697Z,91.90
2018-06-04T09:04:26.849Z,92.20
2018-06-04T09:06:30.021Z,91.50
2018-06-04T09:08:33.348Z,90.70
2018-06-04T09:10:36.496Z,90.80
2018-06-04T09:12:39.659Z,90.80
2018-06-04T09:14:42.829Z,91.00
2018-06-04T09:16:45.989Z,91.20
2018-06-04T09:18:49.152Z,91.70
2018-06-04T09:20:52.301Z,89.80
2018-06-04T09:22:55.455Z,87.50
2018-06-04T09:24:58.598Z,89.20
2018-06-04T09:27:01.763Z,85.20
2018-06-04T09:29:04.981Z,84.90
2018-06-04T09:31:08.145Z,87.20
2018-06-04T09:33:11.288Z,86.00
2018-06-04T09:35:14.415Z,88.00
2018-06-04T09:37:17.676Z,86.20
2018-06-04T09:39:20.842Z,84.90
2018-06-04T09:41:23.988Z,84.30
2018-06-04T09:43:27.157Z,79.70
2018-06-04T09:45:30.316Z,81.60
2018-06-04T09:49:36.456Z,79.70
2018-06-04T09:51:39.612Z,80.10
2018-06-04T09:53:42.870Z,81.50
2018-06-04T09:55:46.013Z,76.90
2018-06-04T09:57:49.248Z,74.20
2018-06-04T09:59:52.400Z,72.00
2018-06-04T10:01:55.642Z,72.50
2018-06-04T10:03:58.779Z,72.60
2018-06-04T10:06:01.929Z,78.40
2018-06-04T10:08:05.071Z,80.70
2018-06-04T10:10:08.212Z,80.90
2018-06-04T10:12:11.366Z,82.70
2018-06-04T10:14:14.519Z,83.20
2018-06-04T10:16:17.666Z,84.80
2018-06-04T10:18:20.833Z,85.40
2018-06-04T10:20:24.086Z,82.20
2018-06-04T10:24:30.199Z,86.00
2018-06-04T10:26:33.349Z,83.40
2018-06-04T10:30:39.396Z,86.70
2018-06-04T10:32:42.545Z,86.00
2018-06-04T10:34:45.704Z,84.60
2018-06-04T10:36:48.863Z,84.20
2018-06-04T10:38:52.016Z,83.30
2018-06-04T10:40:55.195Z,83.40
2018-06-04T10:42:58.339Z,80.30
2018-06-04T10:45:01.478Z,79.50
2018-06-04T10:47:04.637Z,79.40
2018-06-04T10:49:07.773Z,80.50
2018-06-04T10:51:10.924Z,78.80
2018-06-04T10:53:14.230Z,79.60
2018-06-04T10:55:17.396Z,82.10
2018-06-04T10:57:20.536Z,82.70
2018-06-04T10:59:23.693Z,84.50
2018-06-04T11:01:26.836Z,86.10
2018-06-04T11:03:29.991Z,85.10
2018-06-04T11:05:33.168Z,82.00
2018-06-04T11:07:36.320Z,83.00
2018-06-04T11:09:39.484Z,83.00
2018-06-04T11:11:42.776Z,83.40
2018-06-04T11:13:46.020Z,83.50
2018-06-04T11:15:49.165Z,82.00
2018-06-04T11:17:52.308Z,84.40
2018-06-04T11:19:55.458Z,83.60
2018-06-04T11:21:58.616Z,83.00
2018-06-04T11:24:01.796Z,82.60
2018-06-04T11:26:04.922Z,81.60
2018-06-04T11:28:08.056Z,81.30
2018-06-04T11:30:11.209Z,81.90
2018-06-04T11:32:14.355Z,82.90
2018-06-04T11:34:17.749Z,82.90
2018-06-04T11:36:20.884Z,83.70
2018-06-04T11:40:26.990Z,80.40
2018-06-04T11:42:30.124Z,80.80
2018-06-04T11:44:33.261Z,79.00
2018-06-04T11:46:36.478Z,77.70
2018-06-04T11:48:39.616Z,77.50
2018-06-04T11:50:42.736Z,78.20
2018-06-04T11:52:45.869Z,78.40
2018-06-04T11:56:51.908Z,78.30
2018-06-04T11:58:55.051Z,78.90
2018-06-04T12:00:58.207Z,80.10
2018-06-04T12:03:01.363Z,79.90
2018-06-04T12:05:04.520Z,77.80
2018-06-04T12:07:07.660Z,77.50
2018-06-04T12:09:10.836Z,77.90
2018-06-04T12:11:13.971Z,77.90
2018-06-04T12:13:17.115Z,75.90
2018-06-04T12:15:20.243Z,77.30
2018-06-04T12:17:23.396Z,78.40
2018-06-04T12:19:26.549Z,80.70
2018-06-04T12:21:29.944Z,83.10
2018-06-04T12:23:33.085Z,80.30
2018-06-04T12:25:36.216Z,80.80
2018-06-04T12:27:39.371Z,79.60
2018-06-04T12:29:42.553Z,77.80
2018-06-04T12:31:45.693Z,77.60
2018-06-04T12:33:48.831Z,78.00
2018-06-04T12:35:51.955Z,76.80
2018-06-04T12:37:55.107Z,77.40
2018-06-04T12:39:58.268Z,76.90
2018-06-04T12:44:04.367Z,74.80
2018-06-04T12:46:07.495Z,73.50
2018-06-04T12:48:10.673Z,75.70
2018-06-04T12:50:13.760Z,75.40
2018-06-04T12:52:16.900Z,74.30
2018-06-04T12:54:20.024Z,73.40
2018-06-04T12:56:23.167Z,72.20
2018-06-04T12:58:26.300Z,71.10
2018-06-04T13:00:29.541Z,70.70
2018-06-04T13:02:32.659Z,71.10
2018-06-04T13:04:35.861Z,72.30
2018-06-04T13:06:38.933Z,71.40
2018-06-04T13:08:42.311Z,71.10
2018-06-04T13:10:45.460Z,70.40
2018-06-04T13:12:48.664Z,69.80
2018-06-04T13:14:51.811Z,70.50
2018-06-04T13:18:57.851Z,71.90
2018-06-04T13:21:00.988Z,73.60
2018-06-04T13:23:04.115Z,72.70
2018-06-04T13:25:07.236Z,72.90
2018-06-04T13:29:13.356Z,72.10
2018-06-04T13:31:16.476Z,73.20
2018-06-04T13:33:19.615Z,70.30
2018-06-04T13:35:22.743Z,70.20
2018-06-04T13:37:25.879Z,71.00
2018-06-04T13:39:30.098Z,70.10
2018-06-04T13:41:33.224Z,69.40
2018-06-04T13:43:36.424Z,69.40
2018-06-04T13:45:42.880Z,70.00
2018-06-04T13:47:46.054Z,70.60
2018-06-04T13:49:49.196Z,70.60
2018-06-04T13:51:52.488Z,71.00
2018-06-04T13:53:55.837Z,70.10
2018-06-04T13:55:59.000Z,68.10
2018-06-04T13:58:02.144Z,66.30
2018-06-04T14:00:05.544Z,64.90
2018-06-04T14:02:08.795Z,65.70
2018-06-04T14:04:11.968Z,66.30
2018-06-04T14:06:15.127Z,66.60
2018-06-04T14:08:18.251Z,66.80
2018-06-04T14:10:21.481Z,67.80
2018-06-04T14:12:24.609Z,64.80
2018-06-04T14:14:27.748Z,65.30
2018-06-04T14:16:31.584Z,64.90
2018-06-04T14:18:34.749Z,63.90
2018-06-04T14:20:37.883Z,65.20
2018-06-04T14:22:41.021Z,65.80
2018-06-04T14:24:44.167Z,65.10
2018-06-04T14:28:50.245Z,68.10
2018-06-04T14:30:53.400Z,64.60
2018-06-04T14:32:56.551Z,65.20
2018-06-04T14:34:59.792Z,65.10
2018-06-04T14:37:02.939Z,62.60
2018-06-04T14:39:08.609Z,62.00
2018-06-04T14:41:11.720Z,63.90
2018-06-04T14:43:14.879Z,62.40
2018-06-04T14:45:18.040Z,62.70
2018-06-04T14:47:21.209Z,63.50
2018-06-04T14:49:24.341Z,65.60
2018-06-04T14:51:27.511Z,66.90
2018-06-04T14:53:30.668Z,66.10
2018-06-04T14:55:33.912Z,66.40
2018-06-04T14:57:37.056Z,65.80
2018-06-04T14:59:40.191Z,65.70
2018-06-04T15:03:46.343Z,64.00
2018-06-04T15:05:49.504Z,63.70
2018-06-04T15:07:52.664Z,63.70
2018-06-04T15:09:55.841Z,62.90
2018-06-04T15:11:58.976Z,62.00
2018-06-04T15:14:02.163Z,62.00
2018-06-04T15:16:05.321Z,62.00
2018-06-04T15:18:08.473Z,61.20
2018-06-04T15:20:12.212Z,63.80
2018-06-04T15:22:15.396Z,65.50
2018-06-04T15:24:18.600Z,64.70
2018-06-04T15:26:21.785Z,65.00
2018-06-04T15:28:24.943Z,65.90
2018-06-04T15:30:28.096Z,65.20
2018-06-04T15:34:34.164Z,65.70
2018-06-04T15:38:40.320Z,65.40
2018-06-04T15:40:43.779Z,65.40
2018-06-04T15:42:46.912Z,64.90
2018-06-04T15:46:52.984Z,63.90
2018-06-04T15:48:56.955Z,64.30
2018-06-04T15:51:00.204Z,64.40
2018-06-04T15:53:03.548Z,63.60
2018-06-04T15:55:06.729Z,64.10
2018-06-04T15:57:09.888Z,64.10
2018-06-04T15:59:13.024Z,64.80
2018-06-04T16:03:19.227Z,66.90
2018-06-04T16:05:22.375Z,67.70
2018-06-04T16:07:25.516Z,67.30
2018-06-04T16:09:28.706Z,66.90
2018-06-04T16:11:31.804Z,66.50
2018-06-04T16:13:34.933Z,67.00
2018-06-04T16:17:41.032Z,68.20
2018-06-04T16:19:44.261Z,69.00
2018-06-04T16:21:47.420Z,69.00
2018-06-04T16:23:50.779Z,68.30
2018-06-04T16:25:53.900Z,69.40
2018-06-04T16:27:57.049Z,68.70
2018-06-04T16:30:00.176Z,69.50
2018-06-04T16:32:03.350Z,68.00
2018-06-04T16:34:06.467Z,69.20
2018-06-04T16:36:09.608Z,68.60
2018-06-04T16:38:12.799Z,69.50
2018-06-04T16:40:15.937Z,68.80
2018-06-04T16:42:19.090Z,69.60
2018-06-04T16:44:22.221Z,69.90
2018-06-04T16:48:28.271Z,70.60
2018-06-04T16:50:31.467Z,70.60
2018-06-04T16:52:34.608Z,71.80
2018-06-04T16:54:37.727Z,70.90
2018-06-04T16:56:40.880Z,71.20
2018-06-04T16:58:44.016Z,70.70
2018-06-04T17:02:50.098Z,71.30
2018-06-04T17:04:53.246Z,72.20
2018-06-04T17:06:56.377Z,72.80
2018-06-04T17:08:59.516Z,73.00
2018-06-04T17:11:03.047Z,72.60
2018-06-04T17:13:06.295Z,72.90
2018-06-04T17:15:09.909Z,74.50
2018-06-04T17:17:13.096Z,74.20
2018-06-04T17:19:16.261Z,73.70
2018-06-04T17:21:19.362Z,73.90
2018-06-04T17:23:22.503Z,74.20
2018-06-04T17:25:25.636Z,75.10
2018-06-04T17:27:28.767Z,75.40
2018-06-04T17:29:31.916Z,75.70
2018-06-04T17:31:35.039Z,75.00
2018-06-04T17:33:38.177Z,73.50
2018-06-04T17:35:41.313Z,69.70
2018-06-04T17:37:44.444Z,66.00
2018-06-04T17:39:47.600Z,62.30
2018-06-04T17:41:51.484Z,58.60
2018-06-04T17:43:54.617Z,54.70
2018-06-04T17:45:57.758Z,54.20
2018-06-04T17:48:00.892Z,53.00
2018-06-04T17:50:04.145Z,52.20
2018-06-04T17:52:07.527Z,53.00
2018-06-04T17:54:10.980Z,51.90
2018-06-04T17:56:14.091Z,50.90
2018-06-04T17:58:17.243Z,51.30
2018-06-04T18:00:20.466Z,50.20
2018-06-04T18:02:23.597Z,50.00
2018-06-04T18:04:26.719Z,50.40
2018-06-04T18:06:30.608Z,50.00
2018-06-04T18:08:33.762Z,50.20
2018-06-04T18:10:36.988Z,50.20
2018-06-04T18:12:40.136Z,50.90
2018-06-04T18:14:43.387Z,51.00
2018-06-04T18:16:46.923Z,51.20
2018-06-04T18:18:50.083Z,52.20
2018-06-04T18:20:53.221Z,52.20
2018-06-04T18:22:56.383Z,51.80
2018-06-04T18:24:59.670Z,51.50
2018-06-04T18:27:03.732Z,51.40
2018-06-04T18:29:06.867Z,51.20
2018-06-04T18:31:10.067Z,51.70
2018-06-04T18:33:13.238Z,52.30
2018-06-04T18:35:16.423Z,52.00
2018-06-04T18:37:19.819Z,52.60
2018-06-04T18:39:23.007Z,52.60
2018-06-04T18:41:26.166Z,53.00
2018-06-04T18:43:29.312Z,53.10
2018-06-04T18:45:32.629Z,58.40
2018-06-04T18:47:35.884Z,62.70
2018-06-04T18:49:39.064Z,66.50
2018-06-04T18:51:42.360Z,69.70
2018-06-04T18:53:45.572Z,72.70
2018-06-04T18:57:51.849Z,76.50
2018-06-04T18:59:55.072Z,78.50
2018-06-04T19:01:58.287Z,81.50
2018-06-04T19:04:01.497Z,84.90
2018-06-04T19:06:04.704Z,89.10
2018-06-04T19:08:07.941Z,90.30
2018-06-04T19:10:11.160Z,91.40
2018-06-04T19:12:14.417Z,92.20
2018-06-04T19:14:17.582Z,93.20
2018-06-04T19:16:20.779Z,94.00
2018-06-04T19:18:24.004Z,94.80
2018-06-04T19:20:27.203Z,96.00
2018-06-04T19:22:30.369Z,97.30
2018-06-04T19:24:33.633Z,98.80
2018-06-04T19:26:36.808Z,99.00
2018-06-04T19:28:39.990Z,99.90
2018-06-04T19:30:43.172Z,99.90
2018-06-04T19:32:46.342Z,99.90
2018-06-04T19:34:49.496Z,99.90
2018-06-04T19:36:52.813Z,99.90
2018-06-04T19:38:56.049Z,99.90
2018-06-04T19:40:59.259Z,99.90
2018-06-04T19:43:02.476Z,99.90
2018-06-04T19:45:05.683Z,99.90
2018-06-04T19:47:08.852Z,99.90
2018-06-04T19:49:12.105Z,99.90
2018-06-04T19:51:15.322Z,99.90
2018-06-04T19:53:18.614Z,99.90
2018-06-04T19:55:22.307Z,99.90
2018-06-04T19:57:27.898Z,99.90
2018-06-04T19:59:31.114Z,99.90
2018-06-04T20:01:34.303Z,99.90
2018-06-04T20:03:37.469Z,99.90
2018-06-04T20:05:40.693Z,99.90
2018-06-04T20:07:43.865Z,99.90
2018-06-04T20:09:47.106Z,99.90
2018-06-04T20:11:50.388Z,99.90
2018-06-04T20:13:53.553Z,99.90
2018-06-04T20:15:56.815Z,99.90
2018-06-04T20:18:00.237Z,99.90
2018-06-04T20:20:03.388Z,99.90
2018-06-04T20:22:06.536Z,99.90
2018-06-04T20:24:09.737Z,99.90
2018-06-04T20:26:12.937Z,99.90
2018-06-04T20:28:16.190Z,99.90
2018-06-04T20:32:22.376Z,99.90
2018-06-04T20:34:25.553Z,99.90
2018-06-04T20:36:28.769Z,99.90
2018-06-04T20:38:31.891Z,99.90
2018-06-04T20:40:35.138Z,99.90
2018-06-04T20:42:38.319Z,99.90
2018-06-04T20:44:41.526Z,99.90
2018-06-04T20:46:44.700Z,99.90
2018-06-04T20:48:47.891Z,99.90
2018-06-04T20:50:51.080Z,99.90
2018-06-04T20:52:54.288Z,99.90
2018-06-04T20:54:57.536Z,99.90
2018-06-04T20:57:00.665Z,99.90
2018-06-04T20:59:03.844Z,99.90
2018-06-04T21:01:07.015Z,99.90
2018-06-04T21:03:10.204Z,99.90
2018-06-04T21:05:13.405Z,99.90
2018-06-04T21:07:16.648Z,99.90
2018-06-04T21:09:19.914Z,99.90
2018-06-04T21:11:23.085Z,99.90
2018-06-04T21:13:26.302Z,99.90
2018-06-04T21:15:29.524Z,99.90
2018-06-04T21:17:32.789Z,99.90
2018-06-04T21:19:35.959Z,99.90
2018-06-04T21:21:39.139Z,99.90
2018-06-04T21:23:42.491Z,99.90
2018-06-04T21:25:45.707Z,99.90
2018-06-04T21:27:48.886Z,99.90
2018-06-04T21:29:52.736Z,99.90
2018-06-04T21:31:55.972Z,99.90
2018-06-04T21:33:59.160Z,99.90
2018-06-04T21:36:02.445Z,99.90
2018-06-04T21:38:05.645Z,99.90
2018-06-04T21:40:08.779Z,99.90
2018-06-04T21:42:11.949Z,99.90
2018-06-04T21:44:15.183Z,99.90
2018-06-04T21:46:18.371Z,99.90
2018-06-04T21:48:21.637Z,99.90
2018-06-04T21:50:24.824Z,99.90
2018-06-04T21:52:28.077Z,99.90
2018-06-04T21:54:31.322Z,99.90
2018-06-04T21:56:34.490Z,99.90
2018-06-04T21:58:37.699Z,99.90
2018-06-04T22:00:40.904Z,99.90
2018-06-04T22:02:44.073Z,99.90
2018-06-04T22:04:47.318Z,99.90
2018-06-04T22:06:50.483Z,99.90
2018-06-04T22:10:56.664Z,99.90
2018-06-04T22:12:59.882Z,99.90
2018-06-04T22:15:03.092Z,99.90
2018-06-04T22:17:06.750Z,99.90
2018-06-04T22:19:09.988Z,99.90
2018-06-04T22:21:13.148Z,99.90
2018-06-04T22:23:16.431Z,99.90
2018-06-04T22:25:19.601Z,99.90
2018-06-04T22:27:22.789Z,99.90
2018-06-04T22:29:26.001Z,99.90
2018-06-04T22:31:29.179Z,99.90
2018-06-04T22:33:32.361Z,99.90
2018-06-04T22:35:35.584Z,99.90
2018-06-04T22:37:38.964Z,99.90
2018-06-04T22:39:42.176Z,99.90
2018-06-04T22:41:45.397Z,99.90
2018-06-04T22:43:48.664Z,99.90
2018-06-04T22:45:51.848Z,99.90
2018-06-04T22:47:55.071Z,99.90
2018-06-04T22:49:58.290Z,99.90
2018-06-04T22:52:01.467Z,99.90
2018-06-04T22:54:04.681Z,99.90
2018-06-04T22:56:07.852Z,99.90
2018-06-04T22:58:11.075Z,99.90
2018-06-04T23:00:23.116Z,99.90
2018-06-04T23:02:26.385Z,99.90
2018-06-04T23:04:29.594Z,99.90
2018-06-04T23:06:32.737Z,99.90
2018-06-04T23:08:35.938Z,99.90
2018-06-04T23:10:39.155Z,99.90
2018-06-04T23:12:42.360Z,99.90
2018-06-04T23:14:45.594Z,99.90
2018-06-04T23:16:48.783Z,99.90
2018-06-04T23:18:51.947Z,99.90
2018-06-04T23:20:55.193Z,99.90
2018-06-04T23:22:58.377Z,99.90
2018-06-04T23:25:01.541Z,99.90
2018-06-04T23:27:04.777Z,99.90
2018-06-04T23:29:08.043Z,99.90
2018-06-04T23:31:11.256Z,99.90
2018-06-04T23:33:14.453Z,99.90
2018-06-04T23:35:17.670Z,99.90
2018-06-04T23:37:20.894Z,99.90
2018-06-04T23:39:24.124Z,99.90
2018-06-04T23:41:27.399Z,99.90
2018-06-04T23:43:30.590Z,99.90
2018-06-04T23:45:33.743Z,99.90
2018-06-04T23:47:36.952Z,99.90
2018-06-04T23:49:40.157Z,99.90
2018-06-04T23:51:43.331Z,99.90
2018-06-04T23:53:46.553Z,99.90
2018-06-04T23:55:49.751Z,99.90
2018-06-04T23:57:53.737Z,99.90
2018-06-04T23:59:56.928Z,99.90
